createdAt,value
2018-07-31T00:00:15.391Z,46
2018-07-31T00:01:17.443Z,46
2018-07-31T00:02:19.486Z,46
2018-07-31T00:03:21.546Z,45
2018-07-31T00:04:23.584Z,46
2018-07-31T00:05:25.641Z,45
2018-07-31T00:06:27.680Z,46
2018-07-31T00:07:30.049Z,46
2018-07-31T00:08:32.093Z,46
2018-07-31T00:09:34.135Z,46
2018-07-31T00:10:36.961Z,46
2018-07-31T00:11:38.997Z,46
2018-07-31T00:12:41.052Z,46
2018-07-31T00:13:43.089Z,46
2018-07-31T00:14:45.460Z,46
2018-07-31T00:15:47.500Z,45
2018-07-31T00:16:49.544Z,46
2018-07-31T00:17:51.598Z,45
2018-07-31T00:18:53.639Z,46
2018-07-31T00:19:55.967Z,45
2018-07-31T00:20:58.006Z,46
2018-07-31T00:22:00.052Z,46
2018-07-31T00:23:02.113Z,45
2018-07-31T00:24:04.440Z,45
2018-07-31T00:25:06.485Z,45
2018-07-31T00:26:08.539Z,45
2018-07-31T00:27:10.576Z,45
2018-07-31T00:28:12.629Z,45
2018-07-31T00:29:14.682Z,45
2018-07-31T00:30:16.716Z,45
2018-07-31T00:31:19.075Z,45
2018-07-31T00:32:21.514Z,45
2018-07-31T00:33:23.561Z,45
2018-07-31T00:34:25.614Z,45
2018-07-31T00:35:27.656Z,44
2018-07-31T00:36:29.699Z,45
2018-07-31T00:37:31.737Z,45
2018-07-31T00:38:33.797Z,45
2018-07-31T00:39:35.835Z,44
2018-07-31T00:40:38.172Z,45
2018-07-31T00:41:40.223Z,44
2018-07-31T00:42:42.657Z,45
2018-07-31T00:43:44.996Z,45
2018-07-31T00:44:47.042Z,45
2018-07-31T00:45:49.401Z,45
2018-07-31T00:46:51.438Z,45
2018-07-31T00:47:53.496Z,45
2018-07-31T00:48:55.541Z,45
2018-07-31T00:49:57.584Z,45
2018-07-31T00:50:59.636Z,45
2018-07-31T00:52:01.676Z,44
2018-07-31T00:53:03.728Z,44
2018-07-31T00:54:05.781Z,44
2018-07-31T00:55:07.831Z,44
2018-07-31T00:56:09.876Z,44
2018-07-31T00:57:11.920Z,45
2018-07-31T00:58:13.969Z,44
2018-07-31T00:59:16.022Z,44
2018-07-31T01:00:18.057Z,45
2018-07-31T01:01:20.110Z,44
2018-07-31T01:02:22.550Z,44
2018-07-31T01:03:24.589Z,44
2018-07-31T01:04:26.951Z,44
2018-07-31T01:05:29.287Z,44
2018-07-31T01:06:31.335Z,44
2018-07-31T01:07:33.388Z,44
2018-07-31T01:08:35.718Z,44
2018-07-31T01:09:38.051Z,44
2018-07-31T01:10:40.093Z,44
2018-07-31T01:11:42.535Z,44
2018-07-31T01:12:44.572Z,44
2018-07-31T01:13:46.621Z,44
2018-07-31T01:14:48.672Z,44
2018-07-31T01:15:50.706Z,44
2018-07-31T01:16:52.764Z,43
2018-07-31T01:17:54.808Z,43
2018-07-31T01:18:56.861Z,44
2018-07-31T01:19:58.898Z,43
2018-07-31T01:21:00.956Z,44
2018-07-31T01:22:02.996Z,44
2018-07-31T01:23:05.035Z,43
2018-07-31T01:24:07.665Z,44
2018-07-31T01:25:09.703Z,44
2018-07-31T01:26:11.756Z,44
2018-07-31T01:27:13.806Z,44
2018-07-31T01:28:15.858Z,44
2018-07-31T01:29:17.894Z,43
2018-07-31T01:30:19.948Z,44
2018-07-31T01:31:21.993Z,43
2018-07-31T01:32:24.034Z,44
2018-07-31T01:33:26.095Z,44
2018-07-31T01:34:28.421Z,44
2018-07-31T01:35:30.461Z,43
2018-07-31T01:36:32.514Z,43
2018-07-31T01:37:34.857Z,44
2018-07-31T01:38:36.898Z,44
2018-07-31T01:39:38.948Z,43
2018-07-31T01:40:40.987Z,44
2018-07-31T01:41:43.331Z,44
2018-07-31T01:42:45.379Z,43
2018-07-31T01:43:47.433Z,44
2018-07-31T01:44:49.470Z,44
2018-07-31T01:45:51.572Z,43
2018-07-31T01:46:53.567Z,44
2018-07-31T01:47:55.616Z,44
2018-07-31T01:48:57.669Z,44
2018-07-31T01:49:59.701Z,44
2018-07-31T01:51:01.750Z,44
2018-07-31T01:52:03.791Z,44
2018-07-31T01:53:06.135Z,44
2018-07-31T01:54:08.173Z,44
2018-07-31T01:55:10.225Z,44
2018-07-31T01:56:12.278Z,44
2018-07-31T01:57:14.320Z,44
2018-07-31T01:58:16.657Z,44
2018-07-31T01:59:18.698Z,44
2018-07-31T02:00:20.742Z,44
2018-07-31T02:01:23.554Z,44
2018-07-31T02:02:25.607Z,44
2018-07-31T02:03:27.647Z,44
2018-07-31T02:04:29.694Z,44
2018-07-31T02:05:31.742Z,44
2018-07-31T02:06:33.780Z,45
2018-07-31T02:07:35.844Z,44
2018-07-31T02:08:37.882Z,44
2018-07-31T02:09:40.268Z,45
2018-07-31T02:10:42.321Z,45
2018-07-31T02:11:44.377Z,44
2018-07-31T02:12:46.816Z,45
2018-07-31T02:13:48.856Z,45
2018-07-31T02:14:50.905Z,45
2018-07-31T02:15:52.957Z,45
2018-07-31T02:16:55.015Z,45
2018-07-31T02:17:57.053Z,45
2018-07-31T02:18:59.780Z,45
2018-07-31T02:20:01.825Z,45
2018-07-31T02:21:03.878Z,45
2018-07-31T02:22:06.213Z,45
2018-07-31T02:23:08.534Z,45
2018-07-31T02:24:10.873Z,45
2018-07-31T02:25:13.192Z,45
2018-07-31T02:26:15.251Z,45
2018-07-31T02:27:17.293Z,45
2018-07-31T02:28:19.456Z,46
2018-07-31T02:29:21.397Z,45
2018-07-31T02:30:23.822Z,45
2018-07-31T02:31:26.261Z,45
2018-07-31T02:32:28.694Z,45
2018-07-31T02:33:31.121Z,45
2018-07-31T02:34:33.164Z,45
2018-07-31T02:35:35.618Z,45
2018-07-31T02:36:37.661Z,45
2018-07-31T02:37:39.710Z,45
2018-07-31T02:38:42.339Z,45
2018-07-31T02:39:44.374Z,45
2018-07-31T02:40:46.710Z,45
2018-07-31T02:41:49.109Z,45
2018-07-31T02:42:51.431Z,45
2018-07-31T02:43:53.482Z,45
2018-07-31T02:44:56.207Z,45
2018-07-31T02:45:58.637Z,45
2018-07-31T02:47:01.240Z,46
2018-07-31T02:48:03.478Z,46
2018-07-31T02:49:05.523Z,46
2018-07-31T02:50:07.566Z,46
2018-07-31T02:51:09.607Z,46
2018-07-31T02:52:11.948Z,46
2018-07-31T02:53:13.993Z,46
2018-07-31T02:54:16.036Z,46
2018-07-31T02:55:18.088Z,46
2018-07-31T02:56:20.123Z,46
2018-07-31T02:57:22.175Z,46
2018-07-31T02:58:24.223Z,46
2018-07-31T02:59:26.277Z,46
2018-07-31T03:00:28.313Z,46
2018-07-31T03:01:30.750Z,46
2018-07-31T03:02:32.803Z,46
2018-07-31T03:03:34.845Z,46
2018-07-31T03:04:37.770Z,46
2018-07-31T03:05:39.811Z,46
2018-07-31T03:06:41.854Z,46
2018-07-31T03:07:43.896Z,46
2018-07-31T03:08:46.255Z,46
2018-07-31T03:09:48.303Z,47
2018-07-31T03:10:51.219Z,47
2018-07-31T03:11:53.940Z,47
2018-07-31T03:12:55.975Z,47
2018-07-31T03:13:58.029Z,47
2018-07-31T03:15:00.085Z,47
2018-07-31T03:16:02.118Z,47
2018-07-31T03:17:04.559Z,47
2018-07-31T03:18:06.911Z,47
2018-07-31T03:19:08.962Z,47
2018-07-31T03:20:11.404Z,47
2018-07-31T03:21:13.450Z,47
2018-07-31T03:22:15.494Z,47
2018-07-31T03:23:18.488Z,47
2018-07-31T03:24:20.869Z,47
2018-07-31T03:25:22.866Z,47
2018-07-31T03:26:25.201Z,47
2018-07-31T03:27:27.248Z,47
2018-07-31T03:28:29.596Z,47
2018-07-31T03:29:31.935Z,47
2018-07-31T03:30:33.987Z,47
2018-07-31T03:31:36.617Z,47
2018-07-31T03:32:38.671Z,48
2018-07-31T03:33:40.708Z,48
2018-07-31T03:34:42.762Z,48
2018-07-31T03:35:44.819Z,48
2018-07-31T03:36:47.139Z,48
2018-07-31T03:37:49.588Z,48
2018-07-31T03:38:51.630Z,48
2018-07-31T03:39:54.066Z,48
2018-07-31T03:40:56.095Z,48
2018-07-31T03:41:58.149Z,48
2018-07-31T03:43:00.585Z,48
2018-07-31T03:44:03.302Z,48
2018-07-31T03:45:05.633Z,48
2018-07-31T03:46:07.670Z,48
2018-07-31T03:47:10.106Z,48
2018-07-31T03:48:12.158Z,48
2018-07-31T03:49:14.193Z,48
2018-07-31T03:50:16.245Z,48
2018-07-31T03:51:18.292Z,48
2018-07-31T03:52:20.338Z,48
2018-07-31T03:53:22.696Z,48
2018-07-31T03:54:24.735Z,48
2018-07-31T03:55:27.404Z,48
2018-07-31T03:56:29.784Z,48
2018-07-31T03:57:31.838Z,48
2018-07-31T03:58:34.173Z,48
2018-07-31T03:59:36.223Z,48
2018-07-31T04:00:38.270Z,48
2018-07-31T04:01:40.317Z,48
2018-07-31T04:02:42.375Z,49
2018-07-31T04:03:44.417Z,49
2018-07-31T04:04:46.829Z,48
2018-07-31T04:05:48.865Z,48
2018-07-31T04:06:51.228Z,48
2018-07-31T04:07:53.270Z,49
2018-07-31T04:08:55.310Z,48
2018-07-31T04:09:57.361Z,48
2018-07-31T04:10:59.677Z,49
2018-07-31T04:12:01.729Z,49
2018-07-31T04:13:03.777Z,49
2018-07-31T04:14:05.829Z,49
2018-07-31T04:15:07.865Z,49
2018-07-31T04:16:09.916Z,49
2018-07-31T04:17:12.704Z,49
2018-07-31T04:18:15.099Z,49
2018-07-31T04:19:17.144Z,49
2018-07-31T04:20:19.189Z,49
2018-07-31T04:21:21.615Z,49
2018-07-31T04:22:23.673Z,49
2018-07-31T04:23:25.711Z,49
2018-07-31T04:24:28.326Z,49
2018-07-31T04:25:30.665Z,49
2018-07-31T04:26:32.705Z,49
2018-07-31T04:27:34.758Z,49
2018-07-31T04:28:36.810Z,49
2018-07-31T04:29:38.857Z,49
2018-07-31T04:30:40.895Z,49
2018-07-31T04:31:42.954Z,49
2018-07-31T04:32:45.381Z,49
2018-07-31T04:33:47.711Z,49
2018-07-31T04:34:49.763Z,49
2018-07-31T04:35:51.805Z,49
2018-07-31T04:36:54.237Z,49
2018-07-31T04:37:56.279Z,49
2018-07-31T04:38:58.617Z,49
2018-07-31T04:40:00.654Z,49
2018-07-31T04:41:03.027Z,49
2018-07-31T04:42:05.361Z,50
2018-07-31T04:43:07.398Z,49
2018-07-31T04:44:09.455Z,49
2018-07-31T04:45:11.790Z,49
2018-07-31T04:46:13.845Z,50
2018-07-31T04:47:15.900Z,49
2018-07-31T04:48:17.939Z,49
2018-07-31T04:49:20.374Z,49
2018-07-31T04:50:22.485Z,49
2018-07-31T04:51:24.463Z,49
2018-07-31T04:52:26.518Z,50
2018-07-31T04:53:28.558Z,50
2018-07-31T04:54:30.596Z,50
2018-07-31T04:55:32.654Z,49
2018-07-31T04:56:35.077Z,50
2018-07-31T04:57:37.438Z,49
2018-07-31T04:58:39.490Z,49
2018-07-31T04:59:41.572Z,49
2018-07-31T05:00:43.638Z,49
2018-07-31T05:01:45.691Z,49
2018-07-31T05:02:47.745Z,49
2018-07-31T05:03:50.456Z,49
2018-07-31T05:04:52.821Z,49
2018-07-31T05:05:54.860Z,49
2018-07-31T05:06:56.917Z,49
2018-07-31T05:07:58.956Z,49
2018-07-31T05:09:00.999Z,49
2018-07-31T05:10:03.334Z,49
2018-07-31T05:11:05.392Z,49
2018-07-31T05:12:07.433Z,49
2018-07-31T05:13:09.475Z,49
2018-07-31T05:14:11.809Z,49
2018-07-31T05:15:14.154Z,49
2018-07-31T05:16:16.201Z,50
2018-07-31T05:17:18.260Z,49
2018-07-31T05:18:20.436Z,49
2018-07-31T05:19:22.768Z,50
2018-07-31T05:20:24.809Z,49
2018-07-31T05:21:27.177Z,49
2018-07-31T05:22:29.222Z,49
2018-07-31T05:23:31.268Z,49
2018-07-31T05:24:33.313Z,49
2018-07-31T05:25:35.371Z,49
2018-07-31T05:26:37.412Z,49
2018-07-31T05:27:39.457Z,49
2018-07-31T05:28:41.513Z,49
2018-07-31T05:29:43.855Z,49
2018-07-31T05:30:45.899Z,49
2018-07-31T05:31:47.946Z,50
2018-07-31T05:32:50.732Z,49
2018-07-31T05:33:52.539Z,49
2018-07-31T05:34:54.590Z,50
2018-07-31T05:35:56.645Z,49
2018-07-31T05:36:58.686Z,50
2018-07-31T05:38:00.747Z,50
2018-07-31T05:39:02.791Z,51
2018-07-31T05:40:04.840Z,50
2018-07-31T05:41:06.895Z,50
2018-07-31T05:42:09.211Z,50
2018-07-31T05:43:11.264Z,51
2018-07-31T05:44:13.614Z,50
2018-07-31T05:45:15.672Z,50
2018-07-31T05:46:17.721Z,50
2018-07-31T05:47:20.494Z,50
2018-07-31T05:48:22.546Z,49
2018-07-31T05:49:24.589Z,50
2018-07-31T05:50:26.651Z,50
2018-07-31T05:51:28.696Z,50
2018-07-31T05:52:30.738Z,50
2018-07-31T05:53:32.779Z,49
2018-07-31T05:54:34.836Z,50
2018-07-31T05:55:36.878Z,50
2018-07-31T05:56:39.209Z,49
2018-07-31T05:57:41.545Z,49
2018-07-31T05:58:43.581Z,49
2018-07-31T05:59:46.021Z,49
2018-07-31T06:00:48.061Z,49
2018-07-31T06:01:50.119Z,49
2018-07-31T06:02:52.162Z,50
2018-07-31T06:03:54.203Z,49
2018-07-31T06:04:56.256Z,49
2018-07-31T06:05:58.582Z,49
2018-07-31T06:07:00.633Z,49
2018-07-31T06:08:03.072Z,49
2018-07-31T06:09:05.127Z,49
2018-07-31T06:10:07.167Z,49
2018-07-31T06:11:09.224Z,49
2018-07-31T06:12:11.265Z,49
2018-07-31T06:13:13.317Z,49
2018-07-31T06:14:15.659Z,49
2018-07-31T06:15:17.706Z,49
2018-07-31T06:16:19.755Z,49
2018-07-31T06:17:21.802Z,49
2018-07-31T06:18:23.856Z,49
2018-07-31T06:19:25.893Z,49
2018-07-31T06:20:28.235Z,49
2018-07-31T06:21:30.290Z,48
2018-07-31T06:22:32.328Z,48
2018-07-31T06:23:34.388Z,48
2018-07-31T06:24:36.430Z,48
2018-07-31T06:25:38.507Z,48
2018-07-31T06:26:40.518Z,48
2018-07-31T06:27:42.961Z,48
2018-07-31T06:28:45.008Z,48
2018-07-31T06:29:47.056Z,48
2018-07-31T06:30:49.110Z,48
2018-07-31T06:31:51.147Z,48
2018-07-31T06:32:53.245Z,48
2018-07-31T06:33:55.257Z,48
2018-07-31T06:34:57.296Z,48
2018-07-31T06:35:59.354Z,48
2018-07-31T06:37:01.408Z,48
2018-07-31T06:38:03.459Z,48
2018-07-31T06:39:05.511Z,47
2018-07-31T06:40:07.559Z,47
2018-07-31T06:41:09.605Z,47
2018-07-31T06:42:11.652Z,47
2018-07-31T06:43:13.709Z,47
2018-07-31T06:44:15.744Z,47
2018-07-31T06:45:17.802Z,47
2018-07-31T06:46:19.849Z,47
2018-07-31T06:47:21.895Z,47
2018-07-31T06:48:24.261Z,47
2018-07-31T06:49:26.719Z,47
2018-07-31T06:50:28.774Z,46
2018-07-31T06:51:31.091Z,46
2018-07-31T06:52:33.437Z,46
2018-07-31T06:53:35.487Z,47
2018-07-31T06:54:37.813Z,46
2018-07-31T06:55:39.868Z,46
2018-07-31T06:56:42.529Z,46
2018-07-31T06:57:44.856Z,46
2018-07-31T06:58:46.909Z,46
2018-07-31T06:59:48.969Z,47
2018-07-31T07:00:51.006Z,47
2018-07-31T07:01:53.060Z,46
2018-07-31T07:02:55.113Z,47
2018-07-31T07:03:57.462Z,46
2018-07-31T07:04:59.805Z,47
2018-07-31T07:06:01.852Z,46
2018-07-31T07:07:03.893Z,46
2018-07-31T07:08:05.955Z,46
2018-07-31T07:09:08.319Z,46
2018-07-31T07:10:10.367Z,46
2018-07-31T07:11:12.415Z,45
2018-07-31T07:12:14.471Z,44
2018-07-31T07:13:16.905Z,45
2018-07-31T07:14:18.966Z,45
2018-07-31T07:15:21.044Z,45
2018-07-31T07:16:23.656Z,45
2018-07-31T07:17:25.693Z,44
2018-07-31T07:18:27.753Z,44
2018-07-31T07:19:29.802Z,44
2018-07-31T07:20:31.846Z,43
2018-07-31T07:21:33.921Z,43
2018-07-31T07:22:36.302Z,44
2018-07-31T07:23:38.310Z,43
2018-07-31T07:24:40.346Z,43
2018-07-31T07:25:42.697Z,43
2018-07-31T07:26:44.741Z,42
2018-07-31T07:27:47.190Z,42
2018-07-31T07:28:49.600Z,42
2018-07-31T07:29:51.642Z,42
2018-07-31T07:30:53.699Z,42
2018-07-31T07:31:55.759Z,42
2018-07-31T07:32:57.816Z,42
2018-07-31T07:33:59.961Z,41
2018-07-31T07:35:01.911Z,41
2018-07-31T07:36:03.964Z,41
2018-07-31T07:37:06.009Z,41
2018-07-31T07:38:08.073Z,41
2018-07-31T07:39:10.506Z,40
2018-07-31T07:40:12.621Z,40
2018-07-31T07:41:14.618Z,40
2018-07-31T07:42:17.055Z,40
2018-07-31T07:43:19.105Z,40
2018-07-31T07:44:21.154Z,40
2018-07-31T07:45:23.201Z,39
2018-07-31T07:46:25.259Z,39
2018-07-31T07:47:27.314Z,39
2018-07-31T07:48:29.408Z,39
2018-07-31T07:49:31.430Z,39
2018-07-31T07:50:33.485Z,39
2018-07-31T07:51:35.532Z,39
2018-07-31T07:52:37.975Z,39
2018-07-31T07:53:40.026Z,38
2018-07-31T07:54:42.378Z,38
2018-07-31T07:55:44.817Z,38
2018-07-31T07:56:46.873Z,37
2018-07-31T07:57:49.307Z,38
2018-07-31T07:58:51.370Z,38
2018-07-31T07:59:53.418Z,38
2018-07-31T08:00:55.467Z,37
2018-07-31T08:01:57.916Z,37
2018-07-31T08:02:59.956Z,36
2018-07-31T08:04:02.039Z,36
2018-07-31T08:05:04.443Z,36
2018-07-31T08:06:06.501Z,36
2018-07-31T08:07:08.545Z,37
2018-07-31T08:08:10.890Z,36
2018-07-31T08:09:12.947Z,36
2018-07-31T08:10:14.995Z,36
2018-07-31T08:11:17.446Z,36
2018-07-31T08:12:19.500Z,36
2018-07-31T08:13:21.548Z,36
2018-07-31T08:14:23.609Z,36
2018-07-31T08:15:25.965Z,35
2018-07-31T08:16:28.299Z,35
2018-07-31T08:17:30.370Z,36
2018-07-31T08:18:32.403Z,36
2018-07-31T08:19:34.465Z,36
2018-07-31T08:20:36.816Z,36
2018-07-31T08:21:39.164Z,36
2018-07-31T08:22:41.759Z,35
2018-07-31T08:23:43.748Z,35
2018-07-31T08:24:45.796Z,35
2018-07-31T08:25:47.849Z,35
2018-07-31T08:26:49.912Z,35
2018-07-31T08:27:52.053Z,35
2018-07-31T08:28:54.020Z,34
2018-07-31T08:29:56.452Z,34
2018-07-31T08:30:58.517Z,34
2018-07-31T08:32:00.958Z,34
2018-07-31T08:33:03.007Z,34
2018-07-31T08:34:05.058Z,34
2018-07-31T08:35:07.122Z,34
2018-07-31T08:36:09.464Z,34
2018-07-31T08:37:11.529Z,33
2018-07-31T08:38:13.586Z,33
2018-07-31T08:39:15.645Z,33
2018-07-31T08:40:17.691Z,32
2018-07-31T08:41:20.497Z,32
2018-07-31T08:42:22.526Z,32
2018-07-31T08:43:24.858Z,31
2018-07-31T08:44:26.926Z,32
2018-07-31T08:45:29.260Z,31
2018-07-31T08:46:31.311Z,32
2018-07-31T08:47:33.380Z,31
2018-07-31T08:48:35.722Z,31
2018-07-31T08:49:38.435Z,31
2018-07-31T08:50:40.493Z,30
2018-07-31T08:51:42.825Z,30
2018-07-31T08:52:45.170Z,30
2018-07-31T08:53:47.234Z,30
2018-07-31T08:54:49.295Z,29
2018-07-31T08:55:51.821Z,29
2018-07-31T08:56:53.799Z,29
2018-07-31T08:57:55.849Z,29
2018-07-31T08:58:57.907Z,29
2018-07-31T08:59:59.970Z,29
2018-07-31T09:01:02.692Z,29
2018-07-31T09:02:04.753Z,28
2018-07-31T09:03:06.809Z,28
2018-07-31T09:04:08.872Z,28
2018-07-31T09:05:10.921Z,28
2018-07-31T09:06:12.981Z,28
2018-07-31T09:07:15.043Z,28
2018-07-31T09:08:17.171Z,28
2018-07-31T09:09:19.588Z,28
2018-07-31T09:10:21.638Z,28
2018-07-31T09:11:23.692Z,28
2018-07-31T09:12:25.745Z,28
2018-07-31T09:13:28.104Z,28
2018-07-31T09:14:30.153Z,28
2018-07-31T09:15:32.212Z,28
2018-07-31T09:16:34.273Z,28
2018-07-31T09:17:36.696Z,28
2018-07-31T09:18:38.683Z,28
2018-07-31T09:19:40.750Z,28
2018-07-31T09:20:42.795Z,27
2018-07-31T09:21:45.175Z,27
2018-07-31T09:22:47.234Z,27
2018-07-31T09:23:49.611Z,27
2018-07-31T09:24:52.034Z,27
2018-07-31T09:25:54.386Z,27
2018-07-31T09:26:56.439Z,27
2018-07-31T09:27:58.877Z,27
2018-07-31T09:29:00.946Z,26
2018-07-31T09:30:03.005Z,26
2018-07-31T09:31:05.147Z,27
2018-07-31T09:32:07.122Z,26
2018-07-31T09:33:09.178Z,26
2018-07-31T09:34:11.249Z,26
2018-07-31T09:35:13.613Z,26
2018-07-31T09:36:15.957Z,26
2018-07-31T09:37:18.007Z,26
2018-07-31T09:38:20.079Z,26
2018-07-31T09:39:22.826Z,26
2018-07-31T09:40:24.881Z,26
2018-07-31T09:41:26.958Z,25
2018-07-31T09:42:29.000Z,25
2018-07-31T09:43:31.066Z,26
2018-07-31T09:44:33.129Z,25
2018-07-31T09:45:35.480Z,25
2018-07-31T09:46:37.531Z,26
2018-07-31T09:47:39.598Z,25
2018-07-31T09:48:41.659Z,25
2018-07-31T09:49:43.725Z,25
2018-07-31T09:50:46.562Z,26
2018-07-31T09:51:48.638Z,25
2018-07-31T09:52:51.083Z,26
2018-07-31T09:53:53.133Z,26
2018-07-31T09:54:55.198Z,26
2018-07-31T09:55:57.265Z,26
2018-07-31T09:56:59.326Z,27
2018-07-31T09:58:01.392Z,26
2018-07-31T09:59:03.762Z,26
2018-07-31T10:00:05.784Z,26
2018-07-31T10:01:08.122Z,26
2018-07-31T10:02:10.209Z,27
2018-07-31T10:03:12.548Z,27
2018-07-31T10:04:14.895Z,26
2018-07-31T10:05:17.287Z,26
2018-07-31T10:06:19.301Z,26
2018-07-31T10:07:21.376Z,26
2018-07-31T10:08:23.433Z,26
2018-07-31T10:09:25.503Z,26
2018-07-31T10:10:27.841Z,27
2018-07-31T10:11:29.918Z,26
2018-07-31T10:12:31.978Z,26
2018-07-31T10:13:34.040Z,26
2018-07-31T10:14:36.107Z,26
2018-07-31T10:15:38.448Z,26
2018-07-31T10:16:40.514Z,25
2018-07-31T10:17:42.593Z,25
2018-07-31T10:18:44.645Z,26
2018-07-31T10:19:46.695Z,25
2018-07-31T10:20:48.767Z,26
2018-07-31T10:21:50.837Z,26
2018-07-31T10:22:53.177Z,26
2018-07-31T10:23:55.250Z,26
2018-07-31T10:24:57.592Z,26
2018-07-31T10:25:59.650Z,25
2018-07-31T10:27:01.724Z,25
2018-07-31T10:28:03.779Z,25
2018-07-31T10:29:05.841Z,25
2018-07-31T10:30:07.903Z,25
2018-07-31T10:31:10.249Z,25
2018-07-31T10:32:12.321Z,24
2018-07-31T10:33:14.387Z,25
2018-07-31T10:34:16.457Z,25
2018-07-31T10:35:18.506Z,24
2018-07-31T10:36:20.587Z,24
2018-07-31T10:37:22.960Z,25
2018-07-31T10:38:25.020Z,25
2018-07-31T10:39:27.761Z,24
2018-07-31T10:40:30.769Z,24
2018-07-31T10:41:32.840Z,24
2018-07-31T10:42:34.896Z,24
2018-07-31T10:43:36.998Z,24
2018-07-31T10:44:39.633Z,24
2018-07-31T10:45:41.706Z,24
2018-07-31T10:46:43.773Z,24
2018-07-31T10:47:45.837Z,24
2018-07-31T10:48:48.199Z,24
2018-07-31T10:49:50.262Z,24
2018-07-31T10:50:52.707Z,23
2018-07-31T10:51:54.769Z,23
2018-07-31T10:52:56.844Z,24
2018-07-31T10:53:58.902Z,24
2018-07-31T10:55:01.478Z,23
2018-07-31T10:56:03.476Z,23
2018-07-31T10:57:05.535Z,24
2018-07-31T10:58:07.688Z,24
2018-07-31T10:59:09.669Z,24
2018-07-31T11:00:11.747Z,22
2018-07-31T11:01:13.789Z,23
2018-07-31T11:02:15.860Z,23
2018-07-31T11:03:17.941Z,23
2018-07-31T11:04:20.059Z,23
2018-07-31T11:05:22.069Z,23
2018-07-31T11:06:24.526Z,23
2018-07-31T11:07:26.488Z,23
2018-07-31T11:08:28.829Z,23
2018-07-31T11:09:30.905Z,23
2018-07-31T11:10:32.963Z,23
2018-07-31T11:11:35.026Z,23
2018-07-31T11:12:37.098Z,23
2018-07-31T11:13:39.158Z,22
2018-07-31T11:14:41.233Z,22
2018-07-31T11:15:43.293Z,22
2018-07-31T11:16:45.374Z,23
2018-07-31T11:17:47.706Z,23
2018-07-31T11:18:50.083Z,23
2018-07-31T11:19:52.445Z,23
2018-07-31T11:20:54.529Z,22
2018-07-31T11:21:56.890Z,22
2018-07-31T11:22:58.950Z,22
2018-07-31T11:24:01.014Z,22
2018-07-31T11:25:03.073Z,22
2018-07-31T11:26:05.145Z,22
2018-07-31T11:27:07.208Z,22
2018-07-31T11:28:09.271Z,23
2018-07-31T11:29:11.339Z,23
2018-07-31T11:30:13.701Z,23
2018-07-31T11:31:15.767Z,23
2018-07-31T11:32:18.127Z,23
2018-07-31T11:33:20.183Z,22
2018-07-31T11:34:22.262Z,22
2018-07-31T11:35:24.615Z,22
2018-07-31T11:36:26.685Z,22
2018-07-31T11:37:29.047Z,22
2018-07-31T11:38:31.533Z,22
2018-07-31T11:39:33.639Z,22
2018-07-31T11:40:35.701Z,22
2018-07-31T11:41:37.775Z,22
2018-07-31T11:42:40.217Z,22
2018-07-31T11:43:42.290Z,21
2018-07-31T11:44:44.354Z,22
2018-07-31T11:45:46.698Z,22
2018-07-31T11:46:49.059Z,22
2018-07-31T11:47:51.429Z,22
2018-07-31T11:48:53.499Z,22
2018-07-31T11:49:55.596Z,21
2018-07-31T11:50:58.507Z,22
2018-07-31T11:52:00.567Z,21
2018-07-31T11:53:03.014Z,21
2018-07-31T11:54:05.088Z,21
2018-07-31T11:55:07.528Z,21
2018-07-31T11:56:09.599Z,22
2018-07-31T11:57:11.952Z,22
2018-07-31T11:58:14.024Z,21
2018-07-31T11:59:16.079Z,21
2018-07-31T12:00:18.434Z,22
2018-07-31T12:01:20.502Z,22
2018-07-31T12:02:22.563Z,22
2018-07-31T12:03:25.037Z,22
2018-07-31T12:04:27.097Z,23
2018-07-31T12:05:29.157Z,23
2018-07-31T12:06:31.244Z,23
2018-07-31T12:07:33.298Z,23
2018-07-31T12:08:35.362Z,23
2018-07-31T12:09:37.427Z,23
2018-07-31T12:10:39.490Z,22
2018-07-31T12:11:41.839Z,22
2018-07-31T12:12:44.193Z,22
2018-07-31T12:13:46.268Z,22
2018-07-31T12:14:48.324Z,22
2018-07-31T12:15:50.399Z,21
2018-07-31T12:16:52.460Z,22
2018-07-31T12:17:54.528Z,22
2018-07-31T12:18:56.590Z,22
2018-07-31T12:19:58.666Z,21
2018-07-31T12:21:00.724Z,21
2018-07-31T12:22:02.792Z,21
2018-07-31T12:23:04.847Z,21
2018-07-31T12:24:06.934Z,20
2018-07-31T12:25:08.994Z,21
2018-07-31T12:26:11.055Z,21
2018-07-31T12:27:13.133Z,21
2018-07-31T12:28:15.185Z,21
2018-07-31T12:29:17.259Z,21
2018-07-31T12:30:19.334Z,21
2018-07-31T12:31:21.416Z,21
2018-07-31T12:32:23.474Z,21
2018-07-31T12:33:25.829Z,21
2018-07-31T12:34:27.895Z,21
2018-07-31T12:35:29.958Z,21
2018-07-31T12:36:32.037Z,21
2018-07-31T12:37:34.105Z,21
2018-07-31T12:38:36.731Z,22
2018-07-31T12:39:38.734Z,22
2018-07-31T12:40:40.792Z,23
2018-07-31T12:41:42.856Z,22
2018-07-31T12:42:44.921Z,22
2018-07-31T12:43:47.004Z,22
2018-07-31T12:44:49.055Z,23
2018-07-31T12:45:51.407Z,23
2018-07-31T12:46:53.867Z,23
2018-07-31T12:47:55.931Z,23
2018-07-31T12:48:58.311Z,23
2018-07-31T12:50:00.428Z,23
2018-07-31T12:51:02.441Z,23
2018-07-31T12:52:04.517Z,22
2018-07-31T12:53:06.961Z,23
2018-07-31T12:54:09.038Z,23
2018-07-31T12:55:11.095Z,23
2018-07-31T12:56:13.174Z,23
2018-07-31T12:57:15.236Z,23
2018-07-31T12:58:17.304Z,24
2018-07-31T12:59:19.364Z,24
2018-07-31T13:00:21.437Z,23
2018-07-31T13:01:23.494Z,23
2018-07-31T13:02:25.568Z,24
2018-07-31T13:03:27.926Z,24
2018-07-31T13:04:30.001Z,24
2018-07-31T13:05:32.056Z,24
2018-07-31T13:06:34.139Z,24
2018-07-31T13:07:38.693Z,24
2018-07-31T13:08:40.754Z,25
2018-07-31T13:09:42.829Z,25
2018-07-31T13:10:44.887Z,25
2018-07-31T13:11:47.252Z,25
2018-07-31T13:12:49.342Z,25
2018-07-31T13:13:52.368Z,25
2018-07-31T13:14:55.106Z,25
2018-07-31T13:15:57.179Z,26
2018-07-31T13:16:59.232Z,26
2018-07-31T13:18:01.299Z,26
2018-07-31T13:19:03.765Z,26
2018-07-31T13:20:05.826Z,26
2018-07-31T13:21:07.881Z,26
2018-07-31T13:22:09.953Z,26
2018-07-31T13:23:12.015Z,26
2018-07-31T13:24:14.359Z,27
2018-07-31T13:25:16.429Z,26
2018-07-31T13:26:18.779Z,26
2018-07-31T13:27:20.848Z,26
2018-07-31T13:28:22.912Z,27
2018-07-31T13:29:24.986Z,27
2018-07-31T13:30:27.325Z,27
2018-07-31T13:31:29.674Z,27
2018-07-31T13:32:31.742Z,28
2018-07-31T13:33:33.800Z,27
2018-07-31T13:34:35.868Z,27
2018-07-31T13:35:37.933Z,27
2018-07-31T13:36:40.001Z,27
2018-07-31T13:37:42.067Z,27
2018-07-31T13:38:44.118Z,27
2018-07-31T13:39:46.186Z,27
2018-07-31T13:40:48.247Z,28
2018-07-31T13:41:50.303Z,29
2018-07-31T13:42:52.397Z,29
2018-07-31T13:43:55.285Z,32
2018-07-31T13:44:57.188Z,31
2018-07-31T13:45:59.258Z,33
2018-07-31T13:47:01.887Z,34
2018-07-31T13:48:03.943Z,35
2018-07-31T13:49:06.006Z,36
2018-07-31T13:50:08.347Z,36
2018-07-31T13:51:10.411Z,37
2018-07-31T13:52:12.478Z,38
2018-07-31T13:53:14.942Z,35
2018-07-31T13:54:17.049Z,36
2018-07-31T13:55:19.900Z,36
2018-07-31T13:56:22.401Z,39
2018-07-31T13:57:24.463Z,36
2018-07-31T13:58:26.532Z,38
2018-07-31T13:59:28.584Z,39
2018-07-31T14:00:31.038Z,38
2018-07-31T14:01:33.102Z,38
2018-07-31T14:02:35.989Z,35
2018-07-31T14:03:38.065Z,38
2018-07-31T14:04:40.136Z,39
2018-07-31T14:05:42.210Z,39
2018-07-31T14:06:44.269Z,40
2018-07-31T14:07:46.341Z,40
2018-07-31T14:08:48.583Z,40
2018-07-31T14:09:50.777Z,40
2018-07-31T14:10:52.870Z,40
2018-07-31T14:11:55.230Z,40
2018-07-31T14:12:57.298Z,40
2018-07-31T14:14:00.039Z,37
2018-07-31T14:15:02.124Z,31
2018-07-31T14:16:04.178Z,31
2018-07-31T14:17:06.253Z,31
2018-07-31T14:18:08.605Z,32
2018-07-31T14:19:10.653Z,33
2018-07-31T14:20:12.722Z,32
2018-07-31T14:21:14.794Z,32
2018-07-31T14:22:16.853Z,31
2018-07-31T14:23:18.920Z,32
2018-07-31T14:24:21.332Z,31
2018-07-31T14:25:23.380Z,31
2018-07-31T14:26:25.430Z,32
2018-07-31T14:27:27.786Z,30
2018-07-31T14:28:29.839Z,30
2018-07-31T14:29:31.910Z,31
2018-07-31T14:30:34.049Z,31
2018-07-31T14:31:36.032Z,37
2018-07-31T14:32:38.101Z,38
2018-07-31T14:33:40.542Z,32
2018-07-31T14:34:42.607Z,39
2018-07-31T14:35:44.959Z,34
2018-07-31T14:36:47.030Z,38
2018-07-31T14:37:49.091Z,39
2018-07-31T14:38:51.172Z,40
2018-07-31T14:39:53.215Z,34
2018-07-31T14:40:55.266Z,40
2018-07-31T14:41:57.334Z,39
2018-07-31T14:42:59.485Z,33
2018-07-31T14:44:01.468Z,36
2018-07-31T14:45:03.516Z,36
2018-07-31T14:46:05.584Z,38